createdAt,value
2023-09-17T00:01:39.275Z,25.05
2023-09-17T00:04:07.962Z,25.38
2023-09-17T00:06:34.926Z,25.27
2023-09-17T00:09:01.669Z,24.33
2023-09-17T00:11:28.414Z,22.88
2023-09-17T00:13:55.214Z,23.83
2023-09-17T00:16:22.117Z,23.20
2023-09-17T00:18:48.850Z,23.45
2023-09-17T00:21:16.059Z,22.45
2023-09-17T00:23:42.786Z,23.88
2023-09-17T00:26:09.457Z,22.73
2023-09-17T00:28:36.704Z,21.75
2023-09-17T00:31:03.502Z,23.02
2023-09-17T00:33:30.995Z,22.15
2023-09-17T00:36:01.150Z,22.23
2023-09-17T00:38:27.825Z,21.85
2023-09-17T00:40:54.743Z,22.13
2023-09-17T00:43:21.538Z,22.75
2023-09-17T00:45:48.475Z,23.85
2023-09-17T00:48:15.288Z,23.55
2023-09-17T00:50:41.987Z,23.90
2023-09-17T00:53:09.198Z,25.23
2023-09-17T00:55:36.926Z,24.40
2023-09-17T00:58:05.354Z,24.50
2023-09-17T01:00:34.609Z,24.65
2023-09-17T01:03:03.751Z,25.63
2023-09-17T01:05:37.863Z,26.73
2023-09-17T01:08:08.274Z,25.58
2023-09-17T01:10:36.624Z,25.27
2023-09-17T01:13:05.908Z,26.33
2023-09-17T01:15:35.326Z,27.52
2023-09-17T01:18:06.874Z,27.73
2023-09-17T01:20:40.944Z,26.75
2023-09-17T01:23:40.910Z,25.23
2023-09-17T01:26:18.008Z,26.15
2023-09-17T01:28:44.948Z,25.73
2023-09-17T01:31:11.686Z,24.90
2023-09-17T01:33:38.448Z,25.95
2023-09-17T01:36:17.167Z,26.40
2023-09-17T01:38:51.028Z,26.98
2023-09-17T01:41:19.664Z,27.33
2023-09-17T01:43:47.522Z,26.75
2023-09-17T01:46:16.536Z,26.27
2023-09-17T01:48:43.911Z,27.67
2023-09-17T01:51:12.435Z,27.02
2023-09-17T01:53:39.850Z,27.02
2023-09-17T01:56:06.533Z,26.58
2023-09-17T01:58:34.913Z,26.75
2023-09-17T02:01:01.736Z,26.42
2023-09-17T02:03:29.976Z,24.92
2023-09-17T02:05:57.018Z,24.27
2023-09-17T02:08:23.923Z,25.17
2023-09-17T02:10:50.608Z,25.23
2023-09-17T02:13:17.312Z,25.42
2023-09-17T02:15:46.046Z,26.08
2023-09-17T02:18:13.334Z,26.30
2023-09-17T02:20:40.847Z,25.60
2023-09-17T02:23:10.384Z,26.63
2023-09-17T02:25:37.338Z,26.75
2023-09-17T02:28:04.394Z,26.75
2023-09-17T02:30:31.864Z,24.73
2023-09-17T02:32:58.814Z,25.38
2023-09-17T02:35:25.632Z,26.52
2023-09-17T02:37:52.358Z,24.08
2023-09-17T02:40:19.089Z,25.35
2023-09-17T02:42:46.901Z,24.58
2023-09-17T02:45:13.575Z,24.65
2023-09-17T02:47:41.567Z,25.02
2023-09-17T02:50:10.764Z,24.85
2023-09-17T02:52:37.592Z,26.88
2023-09-17T02:55:05.882Z,26.00
2023-09-17T02:57:32.669Z,25.30
2023-09-17T03:00:00.518Z,25.08
2023-09-17T03:02:27.456Z,25.38
2023-09-17T03:04:57.531Z,25.95
2023-09-17T03:07:25.581Z,26.33
2023-09-17T03:09:52.617Z,26.80
2023-09-17T03:12:19.358Z,26.48
2023-09-17T03:14:46.893Z,26.25
2023-09-17T03:17:13.849Z,27.45
2023-09-17T03:19:40.748Z,26.13
2023-09-17T03:22:07.476Z,26.25
2023-09-17T03:24:35.811Z,26.10
2023-09-17T03:27:02.736Z,25.70
2023-09-17T03:29:29.997Z,26.92
2023-09-17T03:31:57.264Z,26.02
2023-09-17T03:34:24.138Z,27.42
2023-09-17T03:36:51.866Z,25.92
2023-09-17T03:39:18.850Z,28.67
2023-09-17T03:41:45.757Z,26.45
2023-09-17T03:44:12.489Z,28.13
2023-09-17T03:46:39.721Z,28.15
2023-09-17T03:49:07.652Z,31.95
2023-09-17T03:51:35.555Z,30.25
2023-09-17T03:54:02.912Z,29.67
2023-09-17T03:56:29.815Z,30.02
2023-09-17T03:58:57.076Z,29.77
2023-09-17T04:01:26.061Z,31.98
2023-09-17T04:03:53.193Z,31.27
2023-09-17T04:06:20.248Z,30.52
2023-09-17T04:08:46.955Z,31.08
2023-09-17T04:11:17.074Z,29.40
2023-09-17T04:13:45.178Z,28.02
2023-09-17T04:16:13.384Z,29.65
2023-09-17T04:18:40.232Z,28.95
2023-09-17T04:21:07.838Z,29.20
2023-09-17T04:23:34.832Z,28.42
2023-09-17T04:26:01.789Z,29.52
2023-09-17T04:28:28.603Z,27.60
2023-09-17T04:30:56.052Z,27.17
2023-09-17T04:33:23.807Z,27.83
2023-09-17T04:35:57.479Z,29.70
2023-09-17T04:38:24.812Z,28.58
2023-09-17T04:40:51.696Z,29.40
2023-09-17T04:43:20.509Z,29.15
2023-09-17T04:45:47.654Z,27.25
2023-09-17T04:48:23.833Z,26.15
2023-09-17T04:50:50.617Z,27.33
2023-09-17T04:53:17.725Z,25.48
2023-09-17T04:55:46.183Z,25.48
2023-09-17T04:58:15.371Z,25.55
2023-09-17T05:00:43.074Z,26.92
2023-09-17T05:03:10.071Z,26.73
2023-09-17T05:05:36.762Z,25.92
2023-09-17T05:08:04.349Z,25.80
2023-09-17T05:10:31.043Z,24.50
2023-09-17T05:12:58.221Z,24.50
2023-09-17T05:15:25.502Z,23.05
2023-09-17T05:17:55.119Z,22.55
2023-09-17T05:20:22.706Z,22.70
2023-09-17T05:22:49.622Z,21.10
2023-09-17T05:25:16.499Z,21.58
2023-09-17T05:27:43.548Z,22.60
2023-09-17T05:30:10.502Z,23.67
2023-09-17T05:32:38.350Z,24.35
2023-09-17T05:35:05.587Z,23.70
2023-09-17T05:37:32.634Z,24.27
2023-09-17T05:40:02.265Z,23.27
2023-09-17T05:42:30.407Z,24.10
2023-09-17T05:44:57.397Z,22.10
2023-09-17T05:47:25.009Z,23.67
2023-09-17T05:49:51.983Z,22.65
2023-09-17T05:52:19.287Z,22.92
2023-09-17T05:54:46.299Z,21.80
2023-09-17T05:57:13.031Z,21.27
2023-09-17T05:59:39.817Z,21.40
2023-09-17T06:02:09.016Z,22.85
2023-09-17T06:04:36.538Z,21.95
2023-09-17T06:07:03.304Z,22.98
2023-09-17T06:09:30.932Z,24.80
2023-09-17T06:11:58.376Z,26.52
2023-09-17T06:14:25.208Z,26.88
2023-09-17T06:16:57.601Z,26.88
2023-09-17T06:19:25.272Z,26.40
2023-09-17T06:21:54.880Z,26.40
2023-09-17T06:24:22.028Z,26.40
2023-09-17T06:26:48.846Z,27.20
2023-09-17T06:29:15.621Z,26.10
2023-09-17T06:31:42.745Z,27.25
2023-09-17T06:34:10.809Z,25.13
2023-09-17T06:36:38.013Z,25.20
2023-09-17T06:39:07.031Z,23.85
2023-09-17T06:41:37.455Z,25.23
2023-09-17T06:44:05.980Z,26.13
2023-09-17T06:46:33.458Z,27.60
2023-09-17T06:49:00.463Z,26.20
2023-09-17T06:51:27.326Z,27.50
2023-09-17T06:53:54.323Z,24.50
2023-09-17T06:56:24.687Z,26.52
2023-09-17T06:58:51.750Z,25.17
2023-09-17T07:01:19.393Z,23.05
2023-09-17T07:03:46.220Z,22.45
2023-09-17T07:06:12.924Z,24.05
2023-09-17T07:08:39.673Z,25.17
2023-09-17T07:11:06.618Z,23.98
2023-09-17T07:13:33.324Z,23.92
2023-09-17T07:16:00.206Z,23.77
2023-09-17T07:18:27.490Z,21.27
2023-09-17T07:20:54.228Z,21.20
2023-09-17T07:23:21.051Z,19.75
2023-09-17T07:25:47.931Z,19.58
2023-09-17T07:28:14.833Z,20.52
2023-09-17T07:30:41.612Z,20.02
2023-09-17T07:33:08.502Z,21.42
2023-09-17T07:35:36.421Z,20.40
2023-09-17T07:38:03.269Z,19.90
2023-09-17T07:40:30.118Z,20.30
2023-09-17T07:42:56.964Z,21.70
2023-09-17T07:45:23.780Z,19.92
2023-09-17T07:47:50.477Z,20.17
2023-09-17T07:50:17.290Z,22.10
2023-09-17T07:52:44.221Z,21.25
2023-09-17T07:55:11.132Z,21.15
2023-09-17T07:57:37.927Z,21.63
2023-09-17T08:00:07.035Z,20.75
2023-09-17T08:02:39.884Z,20.73
2023-09-17T08:05:08.362Z,19.25
2023-09-17T08:07:36.880Z,21.00
2023-09-17T08:10:07.789Z,21.17
2023-09-17T08:12:34.546Z,21.88
2023-09-17T08:15:01.947Z,20.67
2023-09-17T08:17:28.925Z,19.75
2023-09-17T08:19:57.927Z,21.17
2023-09-17T08:22:26.326Z,19.20
2023-09-17T08:24:53.051Z,19.23
2023-09-17T08:27:20.938Z,20.23
2023-09-17T08:29:47.922Z,19.80
2023-09-17T08:32:15.374Z,19.58
2023-09-17T08:34:42.208Z,19.33
2023-09-17T08:37:09.039Z,20.45
2023-09-17T08:39:35.738Z,18.92
2023-09-17T08:42:02.898Z,20.80
2023-09-17T08:44:31.990Z,21.05
2023-09-17T08:47:00.793Z,21.13
2023-09-17T08:49:27.774Z,21.30
2023-09-17T08:51:57.487Z,21.40
2023-09-17T08:54:34.501Z,21.60
2023-09-17T08:57:04.960Z,21.80
2023-09-17T08:59:39.207Z,24.00
2023-09-17T09:02:30.342Z,23.00
2023-09-17T09:04:58.624Z,21.92
2023-09-17T09:07:26.670Z,21.30
2023-09-17T09:09:53.727Z,20.63
2023-09-17T09:12:20.978Z,21.98
2023-09-17T09:14:48.833Z,22.25
2023-09-17T09:17:15.677Z,24.08
2023-09-17T09:19:42.659Z,22.85
2023-09-17T09:22:09.406Z,21.92
2023-09-17T09:24:48.943Z,22.95
2023-09-17T09:27:16.635Z,24.17
2023-09-17T09:29:44.579Z,23.50
2023-09-17T09:32:12.388Z,22.88
2023-09-17T09:34:43.225Z,23.20
2023-09-17T09:37:10.841Z,22.52
2023-09-17T09:39:38.393Z,22.08
2023-09-17T09:42:06.362Z,22.83
2023-09-17T09:44:34.018Z,22.25
2023-09-17T09:47:01.965Z,23.42
2023-09-17T09:49:29.742Z,23.48
2023-09-17T09:52:00.138Z,23.88
2023-09-17T09:54:26.785Z,23.42
2023-09-17T09:56:53.747Z,24.65
2023-09-17T09:59:33.580Z,26.55
2023-09-17T10:02:03.006Z,25.20
2023-09-17T10:04:30.491Z,26.20
2023-09-17T10:06:58.245Z,25.67
2023-09-17T10:09:26.432Z,27.25
2023-09-17T10:11:56.506Z,27.65
2023-09-17T10:14:25.347Z,27.90
2023-09-17T10:16:53.238Z,26.90
2023-09-17T10:19:22.351Z,25.42
2023-09-17T10:21:50.313Z,25.00
2023-09-17T10:24:20.280Z,24.88
2023-09-17T10:26:47.391Z,24.42
2023-09-17T10:29:15.207Z,25.00
2023-09-17T10:31:47.083Z,25.90
2023-09-17T10:34:15.082Z,24.30
2023-09-17T10:36:43.471Z,25.23
2023-09-17T10:39:11.817Z,23.83
2023-09-17T10:41:38.796Z,24.35
2023-09-17T10:44:07.801Z,24.45
2023-09-17T10:46:37.526Z,25.08
2023-09-17T10:49:07.002Z,23.45
2023-09-17T10:51:34.428Z,22.25
2023-09-17T10:54:01.113Z,23.83
2023-09-17T10:56:28.380Z,24.52
2023-09-17T10:58:55.664Z,23.40
2023-09-17T11:01:30.907Z,25.15
2023-09-17T11:04:03.743Z,24.70
2023-09-17T11:06:35.713Z,25.40
2023-09-17T11:09:03.052Z,24.92
2023-09-17T11:11:31.496Z,25.73
2023-09-17T11:13:58.365Z,23.92
2023-09-17T11:16:27.460Z,25.10
2023-09-17T11:19:18.026Z,24.40
2023-09-17T11:21:50.134Z,23.67
2023-09-17T11:24:20.358Z,23.45
2023-09-17T11:26:49.057Z,24.90
2023-09-17T11:29:16.038Z,24.48
2023-09-17T11:31:55.522Z,24.77
2023-09-17T11:34:22.753Z,25.15
2023-09-17T11:36:49.560Z,24.38
2023-09-17T11:39:17.451Z,24.20
2023-09-17T11:41:56.515Z,24.40
2023-09-17T11:44:27.192Z,23.60
2023-09-17T11:46:54.055Z,25.08
2023-09-17T11:49:23.415Z,24.13
2023-09-17T11:51:50.685Z,24.70
2023-09-17T11:54:20.074Z,25.08
2023-09-17T11:56:47.905Z,24.80
2023-09-17T11:59:17.261Z,23.52
2023-09-17T12:01:53.642Z,24.15
2023-09-17T12:04:24.124Z,24.63
2023-09-17T12:06:52.017Z,24.35
2023-09-17T12:10:01.636Z,23.73
2023-09-17T12:12:30.331Z,23.60
2023-09-17T12:14:57.781Z,25.55
2023-09-17T12:17:24.670Z,24.33
2023-09-17T12:20:00.758Z,24.60
2023-09-17T12:23:18.091Z,24.25
2023-09-17T12:25:50.483Z,25.92
2023-09-17T12:28:27.297Z,24.00
2023-09-17T12:30:55.139Z,25.58
2023-09-17T12:33:23.072Z,25.45
2023-09-17T12:35:49.919Z,24.60
2023-09-17T12:38:16.755Z,24.33
2023-09-17T12:40:43.564Z,25.80
2023-09-17T12:43:10.295Z,25.10
2023-09-17T12:45:38.645Z,25.08
2023-09-17T12:48:06.057Z,25.83
2023-09-17T12:50:33.697Z,24.25
2023-09-17T12:53:00.470Z,24.92
2023-09-17T12:55:27.963Z,25.08
2023-09-17T12:57:54.655Z,26.45
2023-09-17T13:00:23.270Z,25.45
2023-09-17T13:02:55.046Z,26.27
2023-09-17T13:05:22.829Z,25.25
2023-09-17T13:07:50.044Z,25.08
2023-09-17T13:10:21.150Z,25.88
2023-09-17T13:12:48.934Z,23.15
2023-09-17T13:15:15.997Z,25.05
2023-09-17T13:17:42.830Z,23.75
2023-09-17T13:20:09.910Z,24.45
2023-09-17T13:22:37.000Z,25.67
2023-09-17T13:25:04.114Z,25.63
2023-09-17T13:27:30.945Z,25.50
2023-09-17T13:29:58.003Z,25.42
2023-09-17T13:32:26.219Z,24.98
2023-09-17T13:34:53.397Z,25.15
2023-09-17T13:37:20.409Z,24.27
2023-09-17T13:39:53.280Z,23.40
2023-09-17T13:42:20.868Z,24.17
2023-09-17T13:44:47.689Z,23.80
2023-09-17T13:47:14.482Z,24.58
2023-09-17T13:49:44.341Z,25.13
2023-09-17T13:52:11.432Z,24.65
2023-09-17T13:54:39.901Z,24.83
2023-09-17T13:57:06.982Z,24.40
2023-09-17T13:59:33.698Z,24.92
2023-09-17T14:02:00.603Z,24.70
2023-09-17T14:04:27.433Z,24.17
2023-09-17T14:06:56.146Z,23.73
2023-09-17T14:09:23.460Z,24.88
2023-09-17T14:11:50.318Z,24.13
2023-09-17T14:14:17.076Z,24.20
2023-09-17T14:16:45.353Z,23.92
2023-09-17T14:19:18.546Z,24.65
2023-09-17T14:21:46.339Z,23.52
2023-09-17T14:24:13.327Z,23.02
2023-09-17T14:26:42.922Z,24.38
2023-09-17T14:29:40.112Z,23.00
2023-09-17T14:32:06.921Z,23.25
2023-09-17T14:34:49.489Z,21.55
2023-09-17T14:37:16.369Z,21.65
2023-09-17T14:39:43.075Z,21.83
2023-09-17T14:42:10.240Z,23.02
2023-09-17T14:44:37.506Z,23.42
2023-09-17T14:47:05.639Z,23.13
2023-09-17T14:49:32.370Z,23.33
2023-09-17T14:51:59.054Z,23.77
2023-09-17T14:54:26.456Z,22.73
2023-09-17T14:56:53.240Z,24.65
2023-09-17T14:59:20.794Z,24.25
2023-09-17T15:01:59.811Z,23.25
2023-09-17T15:04:30.883Z,23.80
2023-09-17T15:06:58.086Z,24.35
2023-09-17T15:09:26.697Z,24.10
2023-09-17T15:12:00.138Z,24.63
2023-09-17T15:14:26.876Z,24.95
2023-09-17T15:16:53.956Z,24.40
2023-09-17T15:19:33.228Z,25.10
2023-09-17T15:21:59.923Z,23.55
2023-09-17T15:24:27.246Z,24.30
2023-09-17T15:26:53.938Z,24.67
2023-09-17T15:29:20.745Z,24.40
2023-09-17T15:31:49.139Z,24.77
2023-09-17T15:34:16.332Z,25.63
2023-09-17T15:36:43.472Z,24.88
2023-09-17T15:39:10.492Z,25.05
2023-09-17T15:41:37.211Z,25.13
2023-09-17T15:44:04.059Z,24.77
2023-09-17T15:46:31.099Z,24.80
2023-09-17T15:48:57.884Z,24.30
2023-09-17T15:51:24.927Z,25.20
2023-09-17T15:53:52.080Z,25.20
2023-09-17T15:56:18.779Z,25.90
2023-09-17T15:58:45.476Z,25.65
2023-09-17T16:01:12.210Z,26.15
2023-09-17T16:03:41.929Z,26.10
2023-09-17T16:06:08.747Z,25.42
2023-09-17T16:08:35.454Z,24.65
2023-09-17T16:11:02.146Z,24.75
2023-09-17T16:13:29.527Z,25.38
2023-09-17T16:15:56.463Z,27.50
2023-09-17T16:18:23.396Z,29.52
2023-09-17T16:20:50.216Z,57.17
2023-09-17T16:23:17.288Z,56.38
2023-09-17T16:25:44.136Z,36.38
2023-09-17T16:28:11.018Z,26.75
2023-09-17T16:30:37.766Z,23.92
2023-09-17T16:33:04.668Z,22.35
2023-09-17T16:35:31.424Z,22.20
2023-09-17T16:37:58.311Z,22.20
2023-09-17T16:40:25.246Z,21.92
2023-09-17T16:43:06.332Z,22.48
2023-09-17T16:45:35.561Z,21.83
2023-09-17T16:48:02.920Z,21.73
2023-09-17T16:50:31.504Z,23.17
2023-09-17T16:52:58.545Z,22.67
2023-09-17T16:55:25.335Z,22.45
2023-09-17T16:57:52.305Z,22.98
2023-09-17T17:00:19.069Z,22.95
2023-09-17T17:02:45.876Z,23.23
2023-09-17T17:05:12.772Z,23.13
2023-09-17T17:07:40.931Z,23.63
2023-09-17T17:10:07.982Z,24.13
2023-09-17T17:12:35.306Z,23.15
2023-09-17T17:15:02.068Z,24.10
2023-09-17T17:17:29.734Z,23.45
2023-09-17T17:19:56.594Z,21.10
2023-09-17T17:22:23.415Z,21.50
2023-09-17T17:24:50.131Z,21.58
2023-09-17T17:27:16.806Z,21.45
2023-09-17T17:29:44.135Z,21.52
2023-09-17T17:32:10.905Z,21.80
2023-09-17T17:34:37.705Z,20.58
2023-09-17T17:37:05.075Z,20.73
2023-09-17T17:39:31.920Z,20.25
2023-09-17T17:41:58.695Z,20.63
2023-09-17T17:44:25.687Z,20.15
2023-09-17T17:46:52.532Z,20.10
2023-09-17T17:49:19.320Z,19.80
2023-09-17T17:51:46.202Z,19.05
2023-09-17T17:54:12.990Z,19.83
2023-09-17T17:56:39.711Z,19.83
2023-09-17T17:59:06.953Z,20.35
2023-09-17T18:01:33.877Z,19.67
2023-09-17T18:04:00.820Z,19.75
2023-09-17T18:06:27.510Z,19.27
2023-09-17T18:08:54.174Z,18.70
2023-09-17T18:11:21.514Z,18.20
2023-09-17T18:13:49.240Z,18.25
2023-09-17T18:16:16.295Z,18.08
2023-09-17T18:18:43.018Z,18.13
2023-09-17T18:21:10.613Z,17.98
2023-09-17T18:23:38.486Z,18.92
2023-09-17T18:26:05.277Z,17.52
2023-09-17T18:28:32.281Z,16.50
2023-09-17T18:30:59.263Z,15.48
2023-09-17T18:33:26.121Z,15.35
2023-09-17T18:35:54.962Z,14.90
2023-09-17T18:38:21.713Z,14.48
2023-09-17T18:40:52.124Z,14.02
2023-09-17T18:43:19.037Z,13.82
2023-09-17T18:45:46.651Z,15.35
2023-09-17T18:48:14.677Z,14.32
2023-09-17T18:50:41.777Z,15.02
2023-09-17T18:53:08.492Z,15.30
2023-09-17T18:55:35.257Z,16.83
2023-09-17T18:58:02.081Z,16.20
2023-09-17T19:00:28.830Z,16.17
2023-09-17T19:02:55.758Z,17.83
2023-09-17T19:05:22.760Z,17.38
2023-09-17T19:07:49.795Z,17.33
2023-09-17T19:10:16.615Z,18.05
2023-09-17T19:12:43.939Z,18.67
2023-09-17T19:15:11.453Z,17.98
2023-09-17T19:17:38.264Z,18.35
2023-09-17T19:20:06.990Z,18.77
2023-09-17T19:22:33.784Z,18.75
2023-09-17T19:25:00.508Z,20.02
2023-09-17T19:27:27.258Z,20.55
2023-09-17T19:29:53.998Z,21.25
2023-09-17T19:32:21.111Z,19.30
2023-09-17T19:34:48.082Z,18.98
2023-09-17T19:37:15.378Z,19.55
2023-09-17T19:39:42.212Z,19.42
2023-09-17T19:42:09.335Z,19.30
2023-09-17T19:44:39.563Z,18.38
2023-09-17T19:47:06.789Z,18.50
2023-09-17T19:49:33.554Z,19.52
2023-09-17T19:52:00.235Z,18.67
2023-09-17T19:54:26.997Z,18.70
2023-09-17T19:56:53.758Z,17.80
2023-09-17T19:59:20.500Z,18.92
2023-09-17T20:01:49.274Z,19.50
2023-09-17T20:04:16.189Z,20.65
2023-09-17T20:06:52.562Z,18.65
2023-09-17T20:09:22.057Z,17.45
2023-09-17T20:11:49.086Z,17.73
2023-09-17T20:14:15.958Z,16.33
2023-09-17T20:16:42.778Z,16.95
2023-09-17T20:19:09.580Z,16.48
2023-09-17T20:21:36.300Z,16.20
2023-09-17T20:24:03.398Z,16.92
2023-09-17T20:26:30.336Z,16.45
2023-09-17T20:28:57.134Z,16.83
2023-09-17T20:31:23.967Z,17.52
2023-09-17T20:33:50.684Z,17.92
2023-09-17T20:36:17.522Z,17.50
2023-09-17T20:38:49.472Z,18.95
2023-09-17T20:41:16.718Z,17.67
2023-09-17T20:43:43.768Z,18.10
2023-09-17T20:46:10.760Z,18.00
2023-09-17T20:48:37.594Z,18.88
2023-09-17T20:51:05.463Z,17.67
2023-09-17T20:53:33.277Z,18.10
2023-09-17T20:56:02.179Z,18.77
2023-09-17T20:58:29.051Z,18.10
2023-09-17T21:00:55.920Z,18.25
2023-09-17T21:03:22.901Z,16.92
2023-09-17T21:05:50.133Z,17.15
2023-09-17T21:08:17.071Z,16.92
2023-09-17T21:10:44.060Z,17.90
2023-09-17T21:13:12.065Z,16.90
2023-09-17T21:15:39.734Z,16.38
2023-09-17T21:18:07.327Z,16.00
2023-09-17T21:20:34.260Z,17.85
2023-09-17T21:23:02.381Z,17.33
2023-09-17T21:25:29.534Z,17.35
2023-09-17T21:27:56.398Z,16.85
2023-09-17T21:30:23.992Z,18.13
2023-09-17T21:32:50.808Z,18.30
2023-09-17T21:35:17.841Z,18.23
2023-09-17T21:37:44.770Z,18.88
2023-09-17T21:40:12.356Z,18.65
2023-09-17T21:42:39.137Z,17.95
2023-09-17T21:45:06.553Z,19.15
2023-09-17T21:47:33.414Z,18.17
2023-09-17T21:50:01.127Z,19.63
2023-09-17T21:52:30.495Z,18.95
2023-09-17T21:54:59.212Z,19.45
2023-09-17T21:57:26.169Z,20.45
2023-09-17T21:59:53.576Z,20.35
2023-09-17T22:02:20.764Z,20.42
2023-09-17T22:04:47.727Z,18.17
2023-09-17T22:07:14.554Z,17.10
2023-09-17T22:09:41.331Z,17.83
2023-09-17T22:12:08.520Z,18.50
2023-09-17T22:14:36.165Z,20.77
2023-09-17T22:17:03.677Z,21.30
2023-09-17T22:19:31.227Z,21.35
2023-09-17T22:21:58.134Z,21.58
2023-09-17T22:24:25.685Z,21.88
2023-09-17T22:26:52.564Z,21.58
2023-09-17T22:29:19.462Z,21.80
2023-09-17T22:31:47.272Z,20.50
2023-09-17T22:34:14.019Z,19.23
2023-09-17T22:36:40.815Z,20.33
2023-09-17T22:39:07.692Z,18.88
2023-09-17T22:41:34.498Z,18.50
2023-09-17T22:44:16.231Z,20.27
2023-09-17T22:46:47.900Z,21.95
2023-09-17T22:49:16.693Z,22.35
2023-09-17T22:51:43.368Z,20.67
2023-09-17T22:54:10.198Z,20.65
2023-09-17T22:56:37.057Z,21.23
2023-09-17T22:59:04.068Z,19.08
2023-09-17T23:01:31.376Z,20.83
2023-09-17T23:03:58.192Z,19.60
2023-09-17T23:06:25.597Z,18.80
2023-09-17T23:08:54.148Z,18.33
2023-09-17T23:11:21.369Z,18.15
2023-09-17T23:13:48.255Z,17.58
2023-09-17T23:16:16.363Z,17.35
2023-09-17T23:18:43.472Z,17.35
2023-09-17T23:21:11.149Z,17.55
2023-09-17T23:23:38.021Z,18.42
2023-09-17T23:26:05.217Z,18.23
2023-09-17T23:28:37.889Z,18.23
2023-09-17T23:31:04.879Z,18.58
2023-09-17T23:33:35.700Z,17.33
2023-09-17T23:36:03.537Z,17.48
2023-09-17T23:38:31.136Z,18.35
2023-09-17T23:40:58.090Z,18.63
2023-09-17T23:43:25.626Z,17.55
2023-09-17T23:45:52.838Z,18.25
2023-09-17T23:48:19.734Z,18.52
2023-09-17T23:50:46.431Z,19.85
2023-09-17T23:53:13.170Z,18.63
2023-09-17T23:55:39.885Z,18.95
2023-09-17T23:58:06.656Z,18.00
